Terminal Aerodrome Forecast
Issued by NWS Charleston, WV

Current Version | Previous Version | Graphics & Text | Print | Product List | Glossary On
Versions: 1 2 3 4 5 6 7 8 9 10 11 12 13 14 15 16 17 18 19 20 21 22 23 24 25 26 27
000
FTUS41 KRLX 222300
TAFPKB
TAF
KPKB 222327Z 2300/2324 00000KT P6SM BKN110
     FM230100 00000KT P6SM BKN015
     FM230800 00000KT 6SM BR BKN020
     FM231100 00000KT 3SM BR BKN025
     FM231300 00000KT P6SM BKN030
     FM231900 VRB03KT P6SM SCT035=

USA.gov is the U.S. government's official web portal to all federal, state and local government web resources and services.